createdAt,value
2022-07-28T00:00:52.333Z,61.03
2022-07-28T00:03:19.124Z,61.78
2022-07-28T00:05:45.766Z,62.31
2022-07-28T00:08:12.679Z,63.16
2022-07-28T00:10:39.333Z,63.24
2022-07-28T00:13:06.676Z,62.32
2022-07-28T00:15:34.304Z,62.73
2022-07-28T00:18:01.046Z,62.42
2022-07-28T00:20:27.950Z,62.09
2022-07-28T00:22:54.835Z,62.50
2022-07-28T00:25:21.467Z,62.83
2022-07-28T00:27:48.248Z,62.54
2022-07-28T00:30:15.073Z,62.71
2022-07-28T00:32:42.151Z,62.94
2022-07-28T00:35:09.444Z,62.36
2022-07-28T00:37:36.342Z,62.09
2022-07-28T00:40:08.236Z,62.07
2022-07-28T00:42:34.838Z,62.26
2022-07-28T00:45:01.785Z,61.57
2022-07-28T00:47:33.616Z,62.18
2022-07-28T00:50:02.465Z,62.29
2022-07-28T00:52:29.824Z,62.47
2022-07-28T00:54:58.965Z,63.03
2022-07-28T00:57:25.695Z,63.84
2022-07-28T00:59:52.578Z,64.46
2022-07-28T01:02:19.547Z,64.81
2022-07-28T01:04:47.402Z,64.76
2022-07-28T01:07:46.048Z,65.25
2022-07-28T01:10:19.951Z,64.83
2022-07-28T01:13:07.592Z,65.24
2022-07-28T01:15:42.453Z,64.36
2022-07-28T01:18:16.466Z,64.38
2022-07-28T01:20:52.597Z,62.57
2022-07-28T01:23:31.304Z,63.35
2022-07-28T01:26:23.066Z,63.48
2022-07-28T01:29:31.309Z,62.80
2022-07-28T01:32:10.602Z,62.84
2022-07-28T01:34:45.688Z,62.96
2022-07-28T01:37:17.377Z,64.51
2022-07-28T01:39:45.859Z,62.92
2022-07-28T01:42:13.637Z,64.23
2022-07-28T01:44:45.220Z,65.54
2022-07-28T01:47:13.205Z,65.38
2022-07-28T01:49:43.185Z,64.21
2022-07-28T01:52:10.786Z,63.38
2022-07-28T01:54:40.359Z,64.52
2022-07-28T01:57:10.008Z,65.16
2022-07-28T01:59:39.671Z,64.36
2022-07-28T02:02:09.690Z,64.28
2022-07-28T02:04:39.194Z,63.62
2022-07-28T02:07:08.251Z,63.83
2022-07-28T02:09:35.981Z,64.06
2022-07-28T02:12:04.846Z,63.83
2022-07-28T02:14:33.104Z,64.64
2022-07-28T02:17:05.957Z,65.79
2022-07-28T02:19:34.278Z,65.65
2022-07-28T02:22:02.921Z,64.92
2022-07-28T02:24:31.676Z,64.35
2022-07-28T02:27:01.472Z,63.82
2022-07-28T02:29:50.330Z,64.06
2022-07-28T02:32:58.657Z,64.58
2022-07-28T02:35:46.015Z,65.10
2022-07-28T02:38:28.016Z,65.64
2022-07-28T02:40:58.396Z,64.83
2022-07-28T02:43:50.098Z,64.55
2022-07-28T02:46:20.200Z,65.54
2022-07-28T02:48:50.735Z,65.90
2022-07-28T02:51:21.878Z,66.71
2022-07-28T02:53:49.948Z,66.80
2022-07-28T02:56:18.180Z,66.49
2022-07-28T02:58:46.762Z,65.10
2022-07-28T03:01:17.730Z,65.52
2022-07-28T03:03:49.044Z,64.91
2022-07-28T03:06:17.114Z,65.30
2022-07-28T03:08:44.465Z,65.37
2022-07-28T03:11:13.868Z,65.20
2022-07-28T03:13:40.746Z,65.30
2022-07-28T03:16:08.156Z,64.40
2022-07-28T03:18:35.336Z,64.87
2022-07-28T03:21:02.269Z,65.68
2022-07-28T03:23:34.467Z,66.12
2022-07-28T03:26:06.936Z,65.47
2022-07-28T03:28:34.197Z,65.36
2022-07-28T03:31:11.073Z,65.10
2022-07-28T03:33:39.192Z,65.50
2022-07-28T03:36:09.243Z,65.37
2022-07-28T03:38:41.214Z,65.46
2022-07-28T03:41:09.968Z,65.54
2022-07-28T03:43:37.928Z,66.11
2022-07-28T03:46:06.645Z,66.14
2022-07-28T03:48:36.572Z,66.68
2022-07-28T03:51:03.348Z,67.19
2022-07-28T03:53:30.364Z,66.33
2022-07-28T03:55:57.182Z,66.53
2022-07-28T03:58:28.605Z,67.48
2022-07-28T04:00:57.705Z,67.33
2022-07-28T04:03:42.872Z,67.13
2022-07-28T04:06:12.887Z,67.01
2022-07-28T04:08:39.709Z,66.67
2022-07-28T04:11:06.423Z,66.58
2022-07-28T04:13:33.382Z,66.34
2022-07-28T04:16:00.364Z,66.34
2022-07-28T04:18:27.008Z,66.72
2022-07-28T04:20:53.883Z,66.65
2022-07-28T04:23:20.436Z,66.84
2022-07-28T04:25:47.108Z,65.98
2022-07-28T04:28:13.999Z,66.27
2022-07-28T04:30:43.846Z,66.34
2022-07-28T04:33:11.077Z,65.49
2022-07-28T04:35:37.938Z,65.38
2022-07-28T04:38:05.150Z,65.52
2022-07-28T04:40:31.863Z,66.46
2022-07-28T04:42:58.723Z,66.05
2022-07-28T04:45:25.579Z,65.85
2022-07-28T04:47:52.294Z,65.80
2022-07-28T04:50:19.148Z,65.42
2022-07-28T04:52:45.727Z,65.04
2022-07-28T04:55:12.435Z,64.87
2022-07-28T04:57:39.316Z,64.67
2022-07-28T05:00:07.936Z,64.50
2022-07-28T05:02:35.338Z,65.57
2022-07-28T05:05:02.181Z,65.46
2022-07-28T05:07:28.907Z,64.53
2022-07-28T05:09:55.554Z,63.86
2022-07-28T05:12:22.167Z,65.86
2022-07-28T05:14:48.835Z,66.26
2022-07-28T05:17:15.432Z,66.68
2022-07-28T05:19:42.168Z,65.41
2022-07-28T05:22:08.764Z,64.69
2022-07-28T05:24:35.436Z,62.83
2022-07-28T05:27:02.160Z,62.70
2022-07-28T05:29:35.109Z,62.64
2022-07-28T05:32:16.614Z,59.72
2022-07-28T05:34:45.389Z,58.91
2022-07-28T05:37:12.365Z,57.29
2022-07-28T05:39:39.179Z,56.29
2022-07-28T05:42:06.292Z,57.08
2022-07-28T05:44:38.278Z,56.65
2022-07-28T05:52:29.085Z,56.52
2022-07-28T05:54:55.963Z,57.25
2022-07-28T05:57:23.505Z,57.29
2022-07-28T05:59:50.275Z,57.33
2022-07-28T06:02:17.386Z,56.40
2022-07-28T06:04:44.205Z,55.70
2022-07-28T06:07:10.870Z,54.70
2022-07-28T06:09:42.008Z,54.66
2022-07-28T06:12:11.570Z,53.48
2022-07-28T06:14:38.367Z,53.65
2022-07-28T06:17:05.221Z,51.33
2022-07-28T06:19:31.849Z,52.94
2022-07-28T06:21:58.822Z,51.76
2022-07-28T06:24:25.369Z,52.78
2022-07-28T06:26:52.021Z,52.75
2022-07-28T06:29:18.864Z,52.08
2022-07-28T06:31:45.622Z,51.21
2022-07-28T06:34:12.486Z,51.29
2022-07-28T06:36:39.413Z,52.34
2022-07-28T06:39:06.019Z,52.43
2022-07-28T06:41:32.718Z,52.47
2022-07-28T06:43:59.518Z,52.85
2022-07-28T06:46:53.461Z,52.19
2022-07-28T06:49:20.386Z,51.38
2022-07-28T06:51:47.127Z,49.53
2022-07-28T06:54:14.279Z,49.22
2022-07-28T06:56:42.904Z,49.82
2022-07-28T06:59:16.913Z,49.75
2022-07-28T07:01:43.992Z,50.34
2022-07-28T07:04:11.102Z,48.71
2022-07-28T07:06:37.829Z,47.91
2022-07-28T07:09:04.524Z,48.25
2022-07-28T07:11:31.290Z,48.11
2022-07-28T07:13:57.917Z,48.84
2022-07-28T07:16:24.807Z,49.62
2022-07-28T07:18:51.465Z,49.74
2022-07-28T07:21:18.140Z,49.40
2022-07-28T07:23:45.102Z,48.75
2022-07-28T07:26:11.959Z,48.84
2022-07-28T07:28:39.021Z,48.54
2022-07-28T07:31:05.795Z,47.97
2022-07-28T07:33:32.516Z,47.36
2022-07-28T07:35:59.344Z,47.71
2022-07-28T07:38:29.117Z,46.67
2022-07-28T07:40:56.218Z,47.40
2022-07-28T07:43:22.894Z,45.65
2022-07-28T07:45:49.497Z,46.07
2022-07-28T07:48:16.152Z,46.34
2022-07-28T07:50:42.723Z,46.61
2022-07-28T07:53:09.577Z,47.21
2022-07-28T07:55:37.681Z,46.72
2022-07-28T07:58:05.174Z,46.99
2022-07-28T08:00:32.214Z,46.32
2022-07-28T08:02:58.975Z,45.62
2022-07-28T08:05:35.713Z,45.85
2022-07-28T08:08:05.419Z,46.51
2022-07-28T08:13:17.613Z,46.50
2022-07-28T08:15:47.688Z,44.78
2022-07-28T08:18:14.813Z,44.60
2022-07-28T08:20:42.240Z,44.87
2022-07-28T08:23:09.492Z,44.73
2022-07-28T08:25:37.194Z,42.89
2022-07-28T08:28:04.370Z,42.91
2022-07-28T08:30:33.001Z,41.90
2022-07-28T08:33:00.453Z,41.98
2022-07-28T08:35:33.457Z,41.89
2022-07-28T08:38:05.043Z,41.30
2022-07-28T08:40:36.279Z,41.83
2022-07-28T08:43:35.532Z,42.21
2022-07-28T08:46:04.452Z,40.59
2022-07-28T08:48:33.385Z,41.58
2022-07-28T08:51:06.323Z,40.40
2022-07-28T08:53:35.443Z,40.61
2022-07-28T08:56:07.607Z,40.36
2022-07-28T08:58:36.427Z,40.47
2022-07-28T09:01:04.428Z,40.74
2022-07-28T09:03:32.863Z,40.99
2022-07-28T09:05:59.519Z,40.41
2022-07-28T09:08:26.317Z,41.02
2022-07-28T09:10:53.618Z,39.53
2022-07-28T09:13:20.510Z,39.42
2022-07-28T09:15:47.889Z,40.10
2022-07-28T09:18:16.767Z,39.79
2022-07-28T09:20:44.191Z,39.23
2022-07-28T09:23:42.353Z,38.08
2022-07-28T09:26:11.707Z,38.42
2022-07-28T09:28:57.498Z,39.41
2022-07-28T09:31:26.638Z,38.22
2022-07-28T09:33:59.350Z,39.60
2022-07-28T09:36:26.477Z,39.15
2022-07-28T09:38:54.325Z,37.80
2022-07-28T09:41:20.958Z,38.14
2022-07-28T09:43:54.230Z,38.21
2022-07-28T09:46:24.399Z,38.53
2022-07-28T09:48:58.639Z,38.51
2022-07-28T09:51:28.598Z,37.23
2022-07-28T09:54:10.807Z,36.80
2022-07-28T09:56:42.279Z,37.87
2022-07-28T09:59:09.390Z,35.97
2022-07-28T10:02:01.915Z,36.12
2022-07-28T10:04:37.788Z,36.70
2022-07-28T10:07:12.743Z,36.95
2022-07-28T10:09:41.372Z,37.40
2022-07-28T10:12:40.143Z,37.73
2022-07-28T10:15:18.378Z,36.35
2022-07-28T10:17:59.143Z,35.93
2022-07-28T10:20:31.980Z,35.46
2022-07-28T10:23:04.718Z,34.98
2022-07-28T10:25:33.970Z,34.68
2022-07-28T10:28:03.314Z,35.27
2022-07-28T10:30:35.403Z,35.71
2022-07-28T10:33:08.592Z,34.33
2022-07-28T10:35:54.528Z,34.86
2022-07-28T10:38:26.092Z,34.94
2022-07-28T10:40:55.606Z,34.44
2022-07-28T10:43:23.805Z,35.09
2022-07-28T10:46:05.674Z,35.16
2022-07-28T10:48:33.832Z,34.45
2022-07-28T10:51:01.614Z,34.33
2022-07-28T10:53:46.336Z,34.56
2022-07-28T10:56:18.814Z,34.83
2022-07-28T10:59:09.468Z,34.27
2022-07-28T11:01:52.323Z,33.52
2022-07-28T11:04:41.188Z,34.20
2022-07-28T11:07:15.811Z,33.97
2022-07-28T11:09:43.343Z,32.96
2022-07-28T11:12:10.859Z,32.82
2022-07-28T11:14:39.469Z,32.91
2022-07-28T11:17:10.841Z,34.61
2022-07-28T11:20:07.171Z,34.10
2022-07-28T11:22:32.187Z,33.70
2022-07-28T11:25:19.513Z,33.17
2022-07-28T11:27:48.210Z,33.37
2022-07-28T11:30:27.769Z,33.79
2022-07-28T11:32:54.890Z,34.29
2022-07-28T11:35:23.464Z,33.11
2022-07-28T11:38:02.451Z,33.42
2022-07-28T11:40:31.480Z,31.33
2022-07-28T11:43:36.630Z,31.43
2022-07-28T11:46:10.329Z,31.26
2022-07-28T11:48:40.613Z,31.63
2022-07-28T11:51:10.406Z,32.15
2022-07-28T11:53:45.621Z,31.39
2022-07-28T11:56:23.577Z,32.15
2022-07-28T11:59:02.318Z,32.72
2022-07-28T12:01:31.975Z,30.94
2022-07-28T12:04:11.140Z,32.48
2022-07-28T12:06:40.304Z,31.43
2022-07-28T12:09:25.786Z,30.94
2022-07-28T12:11:55.198Z,31.86
2022-07-28T12:14:22.695Z,32.55
2022-07-28T12:16:52.712Z,32.62
2022-07-28T12:19:20.989Z,32.35
2022-07-28T12:21:56.307Z,32.36
2022-07-28T12:24:29.650Z,32.59
2022-07-28T12:26:57.164Z,32.27
2022-07-28T12:29:24.462Z,31.43
2022-07-28T12:32:07.118Z,30.63
2022-07-28T12:34:34.917Z,31.18
2022-07-28T12:37:04.124Z,31.65
2022-07-28T12:39:33.327Z,31.08
2022-07-28T12:42:08.910Z,30.47
2022-07-28T12:44:40.699Z,30.16
2022-07-28T12:47:32.316Z,30.54
2022-07-28T12:50:08.316Z,30.64
2022-07-28T12:52:35.300Z,31.23
2022-07-28T12:55:01.971Z,30.41
2022-07-28T12:57:49.789Z,30.63
2022-07-28T13:00:29.286Z,30.34
2022-07-28T13:05:39.250Z,31.18
2022-07-28T13:08:07.368Z,30.20
2022-07-28T13:10:34.958Z,29.57
2022-07-28T13:13:07.727Z,29.50
2022-07-28T13:15:35.038Z,30.89
2022-07-28T13:18:01.905Z,30.37
2022-07-28T13:20:28.601Z,29.42
2022-07-28T13:22:55.508Z,29.67
2022-07-28T13:25:22.327Z,30.23
2022-07-28T13:27:55.479Z,30.10
2022-07-28T13:30:23.161Z,30.10
2022-07-28T13:32:49.808Z,29.89
2022-07-28T13:35:19.131Z,30.73
2022-07-28T13:37:48.057Z,30.34
2022-07-28T13:40:14.713Z,30.20
2022-07-28T13:42:41.387Z,30.07
2022-07-28T13:45:21.491Z,29.64
2022-07-28T13:47:52.315Z,29.17
2022-07-28T13:50:20.827Z,29.43
2022-07-28T13:52:48.374Z,29.72
2022-07-28T13:55:19.213Z,30.44
2022-07-28T13:57:49.021Z,29.61
2022-07-28T14:00:16.938Z,30.04
2022-07-28T14:02:44.270Z,29.90
2022-07-28T14:05:11.025Z,30.27
2022-07-28T14:07:37.830Z,30.18
2022-07-28T14:10:06.854Z,28.98
2022-07-28T14:12:34.263Z,28.81
2022-07-28T14:15:05.241Z,29.82
2022-07-28T14:17:44.243Z,29.29
2022-07-28T14:20:14.180Z,28.83
2022-07-28T14:22:41.513Z,29.54
2022-07-28T14:25:08.763Z,29.52
2022-07-28T14:27:35.418Z,29.28
2022-07-28T14:30:12.245Z,29.69
2022-07-28T14:32:42.568Z,30.08
2022-07-28T14:35:16.358Z,29.85
2022-07-28T14:40:39.243Z,30.28
2022-07-28T14:43:09.926Z,30.40
2022-07-28T14:46:00.433Z,30.70
2022-07-28T14:48:24.756Z,30.66
2022-07-28T14:50:53.401Z,30.20
2022-07-28T14:53:35.666Z,30.72
2022-07-28T14:56:20.616Z,31.00
2022-07-28T14:58:51.623Z,31.48
2022-07-28T15:01:18.425Z,31.64
2022-07-28T15:03:59.815Z,31.34
2022-07-28T15:06:31.068Z,31.62
2022-07-28T15:08:58.141Z,30.93
2022-07-28T15:11:27.117Z,30.84
2022-07-28T15:13:55.535Z,30.97
2022-07-28T15:16:26.716Z,30.17
2022-07-28T15:19:00.079Z,30.70
2022-07-28T15:21:39.031Z,30.64
2022-07-28T15:27:14.245Z,30.54
2022-07-28T15:32:28.086Z,30.55
2022-07-28T15:34:57.333Z,31.02
2022-07-28T15:37:25.874Z,32.58
2022-07-28T15:39:58.309Z,31.14
2022-07-28T15:42:25.315Z,31.85
2022-07-28T15:44:55.123Z,31.44
2022-07-28T15:47:25.167Z,31.66
2022-07-28T15:49:53.889Z,31.89
2022-07-28T15:52:20.747Z,31.72
2022-07-28T15:54:48.971Z,31.97
2022-07-28T15:57:19.930Z,31.48
2022-07-28T15:59:50.774Z,31.50
2022-07-28T16:02:21.256Z,31.17
2022-07-28T16:04:54.293Z,30.91
2022-07-28T16:11:14.332Z,31.55
2022-07-28T16:14:14.679Z,31.63
2022-07-28T16:19:50.870Z,31.30
2022-07-28T16:23:18.206Z,31.22
2022-07-28T16:25:49.415Z,31.48
2022-07-28T16:31:36.418Z,31.58
2022-07-28T16:34:12.457Z,31.24
2022-07-28T16:42:24.761Z,32.39
2022-07-28T16:44:57.164Z,31.99
2022-07-28T16:47:24.321Z,31.83
2022-07-28T16:49:52.475Z,31.35
2022-07-28T16:52:23.203Z,31.39
2022-07-28T16:55:00.950Z,31.91
2022-07-28T16:57:31.281Z,32.21
2022-07-28T16:59:59.551Z,32.41
2022-07-28T17:03:06.674Z,31.51
2022-07-28T17:05:42.969Z,31.68
2022-07-28T17:08:12.686Z,31.10
2022-07-28T17:10:41.395Z,31.49
2022-07-28T17:13:10.408Z,31.31
2022-07-28T17:15:44.430Z,31.74
2022-07-28T17:18:13.957Z,31.67
2022-07-28T17:20:45.416Z,32.42
2022-07-28T17:23:18.285Z,32.53
2022-07-28T17:28:59.903Z,31.39
2022-07-28T17:31:52.322Z,32.33
2022-07-28T17:34:34.085Z,31.77
2022-07-28T17:37:01.420Z,32.41
2022-07-28T17:39:30.122Z,31.89
2022-07-28T17:41:58.259Z,32.44
2022-07-28T17:44:25.074Z,32.61
2022-07-28T17:46:52.216Z,32.96
2022-07-28T17:49:19.164Z,32.97
2022-07-28T17:51:46.284Z,33.00
2022-07-28T17:54:13.337Z,32.70
2022-07-28T17:56:42.371Z,32.95
2022-07-28T17:59:13.776Z,32.72
2022-07-28T18:01:46.090Z,32.76
2022-07-28T18:04:13.464Z,32.79
2022-07-28T18:06:40.537Z,33.49
2022-07-28T18:09:08.708Z,32.83
2022-07-28T18:11:57.853Z,33.38
2022-07-28T18:14:27.423Z,33.61
2022-07-28T18:16:54.951Z,34.04
2022-07-28T18:19:22.048Z,33.50
2022-07-28T18:21:49.117Z,33.63
2022-07-28T18:24:16.775Z,33.51
2022-07-28T18:26:44.131Z,33.72
2022-07-28T18:29:10.915Z,33.99
2022-07-28T18:31:40.242Z,33.75
2022-07-28T18:34:13.022Z,33.74
2022-07-28T18:36:40.195Z,34.10
2022-07-28T18:39:07.046Z,33.81
2022-07-28T18:41:34.534Z,33.82
2022-07-28T18:44:14.260Z,33.85
2022-07-28T18:46:41.178Z,34.09
2022-07-28T18:49:08.113Z,34.18
2022-07-28T18:51:35.530Z,34.05
2022-07-28T18:54:02.657Z,34.22
2022-07-28T18:56:29.366Z,33.83
2022-07-28T18:58:56.217Z,34.49
2022-07-28T19:01:23.535Z,34.65
2022-07-28T19:03:50.360Z,34.71
2022-07-28T19:06:17.177Z,34.56
2022-07-28T19:08:44.004Z,34.14
2022-07-28T19:11:10.612Z,34.38
2022-07-28T19:13:37.385Z,34.47
2022-07-28T19:16:04.274Z,34.47
2022-07-28T19:18:30.991Z,34.58
2022-07-28T19:20:57.758Z,34.72
2022-07-28T19:23:37.818Z,35.17
2022-07-28T19:26:04.654Z,35.60
2022-07-28T19:28:31.238Z,36.39
2022-07-28T19:30:58.995Z,35.97
2022-07-28T19:33:28.459Z,36.68
2022-07-28T19:35:55.172Z,37.13
2022-07-28T19:38:22.039Z,36.58
2022-07-28T19:40:48.911Z,36.87
2022-07-28T19:43:23.459Z,37.26
2022-07-28T19:45:53.356Z,37.73
2022-07-28T19:48:24.226Z,37.65
2022-07-28T19:50:51.307Z,37.87
2022-07-28T19:53:32.334Z,37.79
2022-07-28T19:56:08.917Z,37.52
2022-07-28T19:58:53.180Z,36.93
2022-07-28T20:01:27.426Z,36.43
2022-07-28T20:08:12.349Z,36.28
2022-07-28T20:11:01.641Z,36.52
2022-07-28T20:14:00.373Z,37.19
2022-07-28T20:16:28.969Z,37.29
2022-07-28T20:18:55.686Z,37.31
2022-07-28T20:21:23.226Z,38.43
2022-07-28T20:23:53.445Z,38.88
2022-07-28T20:26:23.745Z,38.63
2022-07-28T20:28:50.917Z,39.93
2022-07-28T20:31:17.796Z,39.78
2022-07-28T20:33:44.804Z,40.78
2022-07-28T20:36:11.472Z,40.58
2022-07-28T20:38:43.042Z,40.06
2022-07-28T20:41:10.075Z,39.87
2022-07-28T20:43:37.392Z,40.14
2022-07-28T20:46:04.476Z,40.09
2022-07-28T20:48:33.803Z,39.55
2022-07-28T20:51:00.765Z,39.89
2022-07-28T20:53:27.446Z,39.98
2022-07-28T20:55:54.185Z,39.50
2022-07-28T20:58:20.853Z,39.37
2022-07-28T21:00:47.628Z,39.88
2022-07-28T21:03:14.214Z,40.45
2022-07-28T21:05:41.132Z,40.51
2022-07-28T21:08:16.957Z,40.84
2022-07-28T21:10:45.842Z,40.62
2022-07-28T21:13:13.676Z,40.45
2022-07-28T21:15:40.915Z,41.27
2022-07-28T21:18:10.062Z,40.80
2022-07-28T21:20:36.841Z,40.53
2022-07-28T21:23:04.037Z,40.67
2022-07-28T21:25:31.733Z,40.27
2022-07-28T21:28:11.129Z,41.17
2022-07-28T21:30:40.748Z,41.22
2022-07-28T21:33:13.137Z,41.36
2022-07-28T21:35:52.453Z,41.27
2022-07-28T21:38:20.446Z,41.17
2022-07-28T21:40:50.874Z,41.17
2022-07-28T21:43:21.022Z,40.73
2022-07-28T21:45:54.276Z,41.02
2022-07-28T21:48:27.410Z,41.13
2022-07-28T21:51:15.700Z,41.22
2022-07-28T21:54:09.515Z,40.99
2022-07-28T21:56:39.171Z,41.23
2022-07-28T21:59:05.820Z,41.47
2022-07-28T22:01:32.666Z,41.38
2022-07-28T22:03:59.460Z,41.60
2022-07-28T22:06:26.088Z,41.78
2022-07-28T22:08:52.705Z,41.48
2022-07-28T22:11:22.916Z,41.46
2022-07-28T22:13:49.646Z,41.74
2022-07-28T22:16:16.639Z,41.77
2022-07-28T22:18:43.290Z,42.01
2022-07-28T22:21:10.088Z,42.12
2022-07-28T22:23:36.698Z,41.89
2022-07-28T22:26:03.557Z,41.88
2022-07-28T22:28:30.585Z,42.89
2022-07-28T22:31:08.873Z,42.76
2022-07-28T22:33:39.877Z,42.60
2022-07-28T22:36:08.005Z,42.11
2022-07-28T22:38:34.684Z,42.16
2022-07-28T22:41:01.223Z,42.30
2022-07-28T22:43:28.035Z,42.07
2022-07-28T22:45:54.696Z,42.93
2022-07-28T22:48:21.422Z,42.78
2022-07-28T22:50:48.011Z,42.42
2022-07-28T22:53:15.276Z,43.01
2022-07-28T22:55:42.350Z,42.76
2022-07-28T22:58:13.024Z,42.94
2022-07-28T23:00:39.801Z,42.49
2022-07-28T23:03:06.601Z,42.81
2022-07-28T23:05:35.388Z,42.74
2022-07-28T23:08:02.124Z,42.33
2022-07-28T23:10:29.825Z,42.63
2022-07-28T23:12:58.707Z,42.68
2022-07-28T23:15:40.966Z,43.22
2022-07-28T23:18:12.544Z,43.08
2022-07-28T23:20:40.034Z,43.22
2022-07-28T23:23:07.167Z,43.63
2022-07-28T23:25:36.646Z,43.75
2022-07-28T23:28:03.281Z,43.91
2022-07-28T23:30:29.936Z,43.75
2022-07-28T23:32:56.532Z,44.21
2022-07-28T23:35:25.002Z,44.33
2022-07-28T23:37:51.786Z,44.40
2022-07-28T23:40:18.540Z,44.46
2022-07-28T23:42:45.082Z,44.84
2022-07-28T23:45:11.928Z,45.03
2022-07-28T23:47:38.576Z,44.42
2022-07-28T23:50:05.976Z,45.69
2022-07-28T23:52:32.632Z,44.94
2022-07-28T23:54:59.442Z,44.65
2022-07-28T23:57:31.144Z,45.07
2022-07-28T23:59:59.457Z,45.25
